| time (UTC) | temp F | wind direction | speed MPH | gust MPH | rain 1hr in | rain 24hr in | rain mn in | humidity % | barometer mb |
| 20260502194820 | 65 | 213 | 1.0 | 7.0 | 0.00 | 0.00 | 0.00 | 34 | 1010.9 |
| 20260502194324 | 64 | 148 | 1.0 | 6.0 | 0.00 | 0.00 | 0.00 | 34 | 1011.0 |
| 20260502193832 | 63 | 212 | 0.0 | 5.0 | 0.00 | 0.00 | 0.00 | 37 | 1011.2 |
| 20260502193348 | 63 | 221 | 0.0 | 5.0 | 0.00 | 0.00 | 0.00 | 35 | 1011.3 |
| 20260502192829 | 63 | 213 | 0.0 | 5.0 | 0.00 | 0.00 | 0.00 | 34 | 1011.4 |
| 20260502192346 | 64 | 251 | 1.0 | 4.0 | 0.00 | 0.00 | 0.00 | 34 | 1011.5 |
| 20260502191837 | 64 | 232 | 1.0 | 4.0 | 0.00 | 0.00 | 0.00 | 33 | 1011.6 |
| 20260502191335 | 64 | 251 | 0.0 | 4.0 | 0.00 | 0.00 | 0.00 | 36 | 1011.7 |
| 20260502190822 | 63 | 271 | 1.0 | 5.0 | 0.00 | 0.00 | 0.00 | 34 | 1011.9 |
| 20260502190338 | 63 | 246 | 0.0 | 5.0 | 0.00 | 0.00 | 0.00 | 35 | 1012.0 |
| 20260502185842 | 63 | 229 | 1.0 | 4.0 | 0.00 | 0.00 | 0.00 | 34 | 1012.1 |
| 20260502185329 | 63 | 244 | 1.0 | 4.0 | 0.00 | 0.00 | 0.00 | 35 | 1012.1 |
| 20260502184825 | 63 | 192 | 0.0 | 4.0 | 0.00 | 0.00 | 0.00 | 34 | 1012.2 |
| 20260502184320 | 63 | 271 | 1.0 | 4.0 | 0.00 | 0.00 | 0.00 | 34 | 1012.4 |
| 20260502183816 | 62 | 186 | 0.0 | 4.0 | 0.00 | 0.00 | 0.00 | 36 | 1012.4 |
| 20260502183332 | 62 | 244 | 1.0 | 4.0 | 0.00 | 0.00 | 0.00 | 34 | 1012.5 |
| 20260502182835 | 61 | 227 | 0.0 | 6.0 | 0.00 | 0.00 | 0.00 | 34 | 1012.6 |
| 20260502182323 | 61 | 210 | 0.0 | 4.0 | 0.00 | 0.00 | 0.00 | 36 | 1012.7 |
| 20260502181821 | 61 | 231 | 0.0 | 5.0 | 0.00 | 0.00 | 0.00 | 34 | 1012.7 |
| 20260502181321 | 61 | 236 | 1.0 | 5.0 | 0.00 | 0.00 | 0.00 | 35 | 1012.9 |
| 20260502180857 | 61 | 275 | 1.0 | 4.0 | 0.00 | 0.00 | 0.00 | 35 | 1012.9 |
| 20260502180323 | 60 | 179 | 0.0 | 7.0 | 0.00 | 0.00 | 0.00 | 36 | 1013.1 |
| 20260502170337 | 58 | 205 | 1.0 | 5.0 | 0.00 | 0.00 | 0.00 | 36 | 1014.1 |
| 20260502164322 | 57 | 205 | 1.0 | 5.0 | 0.00 | 0.00 | 0.00 | 36 | 1014.4 |
| 20260502163817 | 58 | 214 | 0.0 | 4.0 | 0.00 | 0.00 | 0.00 | 37 | 1014.4 |
| 20260502163323 | 58 | 205 | 0.0 | 4.0 | 0.00 | 0.00 | 0.00 | 39 | 1014.5 |
| 20260502162819 | 57 | 225 | 0.0 | 2.0 | 0.00 | 0.00 | 0.00 | 40 | 1014.6 |
| 20260502162316 | 57 | 192 | 0.0 | 4.0 | 0.00 | 0.00 | 0.00 | 38 | 1014.6 |
| 20260502161832 | 57 | 197 | 0.0 | 6.0 | 0.00 | 0.00 | 0.00 | 38 | 1014.8 |
| 20260502161335 | 56 | 212 | 0.0 | 6.0 | 0.00 | 0.00 | 0.00 | 39 | 1014.7 |
| 20260502160824 | 56 | 250 | 1.0 | 4.0 | 0.00 | 0.00 | 0.00 | 39 | 1014.9 |
| 20260502160340 | 56 | 208 | 0.0 | 2.0 | 0.00 | 0.00 | 0.00 | 39 | 1015.0 |
| 20260502152328 | 55 | 226 | 0.0 | 2.0 | 0.00 | 0.00 | 0.00 | 42 | 1015.3 |
| 20260502151841 | 54 | 248 | 1.0 | 3.0 | 0.00 | 0.00 | 0.00 | 40 | 1015.4 |
| 20260502151324 | 54 | 246 | 0.0 | 4.0 | 0.00 | 0.00 | 0.00 | 41 | 1015.4 |
| 20260502150901 | 54 | 211 | 1.0 | 3.0 | 0.00 | 0.00 | 0.00 | 41 | 1015.5 |
| 20260502150328 | 54 | 275 | 0.0 | 1.0 | 0.00 | 0.00 | 0.00 | 43 | 1015.5 |
| 20260502130334 | 42 | 246 | 0.0 | 0.0 | 0.00 | 0.00 | 0.00 | 72 | 1016.3 |
| 20260502123325 | 39 | 248 | 0.0 | 0.0 | 0.00 | 0.00 | 0.00 | 79 | 1016.4 |
| 20260502122820 | 38 | 248 | 0.0 | 0.0 | 0.00 | 0.00 | 0.00 | 80 | 1016.4 |
| 20260502122336 | 38 | 248 | 0.0 | 0.0 | 0.00 | 0.00 | 0.00 | 82 | 1016.4 |
| 20260502121833 | 38 | 248 | 0.0 | 0.0 | 0.00 | 0.00 | 0.00 | 82 | 1016.4 |
| 20260502121317 | 38 | 248 | 0.0 | 0.0 | 0.00 | 0.00 | 0.00 | 82 | 1016.3 |
| 20260502120825 | 37 | 248 | 0.0 | 0.0 | 0.00 | 0.00 | 0.00 | 83 | 1016.3 |
| 20260502120322 | 37 | 248 | 0.0 | 0.0 | 0.00 | 0.00 | 0.00 | 83 | 1016.3 |
| 20260502115824 | 37 | 248 | 0.0 | 0.0 | 0.00 | 0.00 | 0.00 | 83 | 1016.3 |
| 20260502115340 | 37 | 248 | 0.0 | 0.0 | 0.00 | 0.00 | 0.00 | 83 | 1016.2 |
| 20260502114828 | 36 | 248 | 0.0 | 0.0 | 0.00 | 0.00 | 0.00 | 83 | 1016.3 |
| 20260502114330 | 36 | 248 | 0.0 | 0.0 | 0.00 | 0.00 | 0.00 | 83 | 1016.2 |
| 20260502113818 | 36 | 248 | 0.0 | 0.0 | 0.00 | 0.00 | 0.00 | 83 | 1016.2 |
| 20260502113314 | 36 | 248 | 0.0 | 0.0 | 0.00 | 0.00 | 0.00 | 83 | 1016.3 |
| 20260502112818 | 36 | 248 | 0.0 | 0.0 | 0.00 | 0.00 | 0.00 | 83 | 1016.3 |
| 20260502112335 | 36 | 248 | 0.0 | 0.0 | 0.00 | 0.00 | 0.00 | 83 | 1016.3 |
| 20260502111823 | 36 | 248 | 0.0 | 0.0 | 0.00 | 0.00 | 0.00 | 83 | 1016.3 |
| 20260502111322 | 36 | 248 | 0.0 | 0.0 | 0.00 | 0.00 | 0.00 | 82 | 1016.3 |
| 20260502110818 | 36 | 248 | 0.0 | 0.0 | 0.00 | 0.00 | 0.00 | 82 | 1016.3 |
| 20260502110325 | 36 | 248 | 0.0 | 0.0 | 0.00 | 0.00 | 0.00 | 82 | 1016.2 |
| 20260502105828 | 36 | 247 | 0.0 | 0.0 | 0.00 | 0.00 | 0.00 | 81 | 1016.2 |
| 20260502105326 | 36 | 244 | 0.0 | 0.0 | 0.00 | 0.00 | 0.00 | 81 | 1016.3 |
| 20260502104843 | 36 | 249 | 0.0 | 0.0 | 0.00 | 0.00 | 0.00 | 80 | 1016.3 |
| 20260502104324 | 36 | 246 | 0.0 | 0.0 | 0.00 | 0.00 | 0.00 | 78 | 1016.2 |
| 20260502103829 | 36 | 246 | 0.0 | 0.0 | 0.00 | 0.00 | 0.00 | 77 | 1016.2 |
| 20260502103325 | 36 | 245 | 0.0 | 0.0 | 0.00 | 0.00 | 0.00 | 77 | 1016.2 |
| 20260502102821 | 36 | 245 | 0.0 | 0.0 | 0.00 | 0.00 | 0.00 | 78 | 1016.2 |
| 20260502102338 | 36 | 245 | 0.0 | 0.0 | 0.00 | 0.00 | 0.00 | 78 | 1016.2 |
| 20260502101825 | 36 | 245 | 0.0 | 0.0 | 0.00 | 0.00 | 0.00 | 77 | 1016.1 |
| 20260502101323 | 36 | 245 | 0.0 | 0.0 | 0.00 | 0.00 | 0.00 | 77 | 1016.1 |
| 20260502100819 | 36 | 245 | 0.0 | 0.0 | 0.00 | 0.00 | 0.00 | 77 | 1016.1 |
| 20260502100327 | 36 | 245 | 0.0 | 0.0 | 0.00 | 0.00 | 0.00 | 76 | 1016.0 |
| 20260502091327 | 39 | 238 | 0.0 | 0.0 | 0.00 | 0.00 | 0.00 | 70 | 1015.9 |
| 20260502090823 | 39 | 243 | 0.0 | 0.0 | 0.00 | 0.00 | 0.00 | 70 | 1015.8 |
| 20260502090328 | 39 | 242 | 0.0 | 0.0 | 0.00 | 0.00 | 0.00 | 69 | 1015.8 |
| 20260502071331 | 42 | 257 | 0.0 | 0.0 | 0.00 | 0.00 | 0.00 | 61 | 1016.1 |
| 20260502070818 | 42 | 242 | 0.0 | 0.0 | 0.00 | 0.00 | 0.00 | 61 | 1016.1 |
| 20260502070335 | 42 | 242 | 0.0 | 0.0 | 0.00 | 0.00 | 0.00 | 61 | 1016.1 |
| 20260502065837 | 42 | 239 | 0.0 | 0.0 | 0.00 | 0.00 | 0.00 | 61 | 1016.1 |
| 20260502065325 | 42 | 238 | 0.0 | 0.0 | 0.00 | 0.00 | 0.00 | 61 | 1016.2 |
| 20260502064838 | 42 | 239 | 0.0 | 0.0 | 0.00 | 0.00 | 0.00 | 60 | 1016.2 |
| 20260502064321 | 42 | 241 | 0.0 | 0.0 | 0.00 | 0.00 | 0.00 | 60 | 1016.2 |
| 20260502063838 | 42 | 242 | 0.0 | 0.0 | 0.00 | 0.00 | 0.00 | 60 | 1016.3 |
| 20260502063325 | 42 | 243 | 0.0 | 0.0 | 0.00 | 0.00 | 0.00 | 60 | 1016.3 |
| 20260502062820 | 42 | 242 | 0.0 | 0.0 | 0.00 | 0.00 | 0.00 | 61 | 1016.3 |
| 20260502062316 | 42 | 240 | 0.0 | 0.0 | 0.00 | 0.00 | 0.00 | 61 | 1016.3 |
| 20260502061824 | 42 | 246 | 0.0 | 0.0 | 0.00 | 0.00 | 0.00 | 60 | 1016.3 |
| 20260502060822 | 43 | 242 | 0.0 | 0.0 | 0.00 | 0.00 | 0.00 | 60 | 1016.3 |
| 20260502060338 | 43 | 246 | 0.0 | 0.0 | 0.00 | 0.00 | 0.00 | 60 | 1016.3 |
| 20260502055822 | 42 | 244 | 0.0 | 0.0 | 0.00 | 0.00 | 0.00 | 60 | 1016.3 |
| 20260502055329 | 42 | 242 | 0.0 | 0.0 | 0.00 | 0.00 | 0.00 | 60 | 1016.3 |
| 20260502054826 | 42 | 244 | 0.0 | 0.0 | 0.00 | 0.00 | 0.00 | 60 | 1016.2 |
| 20260502054350 | 42 | 246 | 0.0 | 0.0 | 0.00 | 0.00 | 0.00 | 61 | 1016.2 |
| 20260502053817 | 42 | 238 | 0.0 | 0.0 | 0.00 | 0.00 | 0.00 | 60 | 1016.3 |
| 20260502053314 | 42 | 242 | 0.0 | 0.0 | 0.00 | 0.00 | 0.00 | 61 | 1016.3 |
| 20260502052817 | 41 | 249 | 0.0 | 0.0 | 0.00 | 0.00 | 0.00 | 64 | 1016.3 |
| 20260502052334 | 41 | 245 | 0.0 | 0.0 | 0.00 | 0.00 | 0.00 | 65 | 1016.3 |
| 20260502051822 | 41 | 246 | 0.0 | 0.0 | 0.00 | 0.00 | 0.00 | 67 | 1016.4 |
| 20260502051344 | 40 | 251 | 0.0 | 0.0 | 0.00 | 0.00 | 0.00 | 68 | 1016.4 |
| 20260502050901 | 40 | 251 | 0.0 | 0.0 | 0.00 | 0.00 | 0.00 | 68 | 1016.4 |
| 20260502050346 | 40 | 251 | 0.0 | 0.0 | 0.00 | 0.00 | 0.00 | 68 | 1016.4 |
| 20260502045829 | 40 | 251 | 0.0 | 0.0 | 0.00 | 0.00 | 0.00 | 68 | 1016.5 |
| 20260502045317 | 41 | 251 | 0.0 | 0.0 | 0.00 | 0.00 | 0.00 | 67 | 1016.4 |
| 20260502044832 | 41 | 251 | 0.0 | 0.0 | 0.00 | 0.00 | 0.00 | 66 | 1016.4 |
| 20260502044318 | 41 | 250 | 0.0 | 0.0 | 0.00 | 0.00 | 0.00 | 65 | 1016.4 |
| 20260502043824 | 41 | 250 | 0.0 | 0.0 | 0.00 | 0.00 | 0.00 | 65 | 1016.4 |
| 20260502043321 | 41 | 250 | 0.0 | 0.0 | 0.00 | 0.00 | 0.00 | 64 | 1016.4 |
| 20260502042843 | 42 | 250 | 0.0 | 0.0 | 0.00 | 0.00 | 0.00 | 65 | 1016.4 |
| 20260502042339 | 42 | 241 | 0.0 | 0.0 | 0.00 | 0.00 | 0.00 | 63 | 1016.4 |
| 20260502041834 | 42 | 248 | 0.0 | 0.0 | 0.00 | 0.00 | 0.00 | 60 | 1016.4 |
| 20260502041334 | 43 | 244 | 0.0 | 0.0 | 0.00 | 0.00 | 0.00 | 59 | 1016.4 |
| 20260502040821 | 44 | 239 | 0.0 | 0.0 | 0.00 | 0.00 | 0.00 | 58 | 1016.4 |
| 20260502040338 | 44 | 239 | 0.0 | 0.0 | 0.00 | 0.00 | 0.00 | 56 | 1016.4 |
| 20260502035819 | 44 | 239 | 0.0 | 0.0 | 0.00 | 0.00 | 0.00 | 55 | 1016.5 |
| 20260502035337 | 45 | 239 | 0.0 | 0.0 | 0.00 | 0.00 | 0.00 | 51 | 1016.4 |
| 20260502034845 | 45 | 237 | 0.0 | 0.0 | 0.00 | 0.00 | 0.00 | 52 | 1016.4 |
| 20260502034331 | 45 | 239 | 0.0 | 0.0 | 0.00 | 0.00 | 0.00 | 50 | 1016.5 |
| 20260502033818 | 45 | 240 | 0.0 | 0.0 | 0.00 | 0.00 | 0.00 | 49 | 1016.4 |
| 20260502033335 | 45 | 240 | 0.0 | 0.0 | 0.00 | 0.00 | 0.00 | 48 | 1016.4 |
| 20260502032838 | 46 | 242 | 0.0 | 0.0 | 0.00 | 0.00 | 0.00 | 49 | 1016.4 |
| 20260502032325 | 46 | 242 | 0.0 | 0.0 | 0.00 | 0.00 | 0.00 | 48 | 1016.4 |
| 20260502031822 | 46 | 246 | 0.0 | 0.0 | 0.00 | 0.00 | 0.00 | 47 | 1016.4 |
| 20260502031327 | 46 | 247 | 0.0 | 0.0 | 0.00 | 0.00 | 0.00 | 47 | 1016.4 |
| 20260502030834 | 47 | 248 | 0.0 | 0.0 | 0.00 | 0.00 | 0.00 | 44 | 1016.4 |
| 20260502030400 | 47 | 248 | 0.0 | 0.0 | 0.00 | 0.00 | 0.00 | 43 | 1016.5 |
| 20260502025813 | 47 | 248 | 0.0 | 0.0 | 0.00 | 0.00 | 0.00 | 42 | 1016.4 |
| 20260502025346 | 47 | 248 | 0.0 | 0.0 | 0.00 | 0.00 | 0.00 | 42 | 1016.5 |
| 20260502024821 | 47 | 249 | 0.0 | 0.0 | 0.00 | 0.00 | 0.00 | 43 | 1016.4 |
| 20260502024324 | 47 | 252 | 0.0 | 0.0 | 0.00 | 0.00 | 0.00 | 44 | 1016.5 |
| 20260502023832 | 47 | 253 | 0.0 | 0.0 | 0.00 | 0.00 | 0.00 | 44 | 1016.5 |
| 20260502023328 | 47 | 253 | 0.0 | 0.0 | 0.00 | 0.00 | 0.00 | 43 | 1016.5 |
| 20260502022830 | 47 | 254 | 0.0 | 0.0 | 0.00 | 0.00 | 0.00 | 43 | 1016.4 |
| 20260502022316 | 47 | 254 | 0.0 | 0.0 | 0.00 | 0.00 | 0.00 | 44 | 1016.5 |
| 20260502021832 | 47 | 254 | 0.0 | 0.0 | 0.00 | 0.00 | 0.00 | 45 | 1016.4 |
| 20260502021335 | 47 | 256 | 0.0 | 0.0 | 0.00 | 0.00 | 0.00 | 48 | 1016.4 |
| 20260502020829 | 48 | 263 | 0.0 | 0.0 | 0.00 | 0.00 | 0.00 | 46 | 1016.3 |
| 20260502020337 | 48 | 263 | 0.0 | 0.0 | 0.00 | 0.00 | 0.00 | 43 | 1016.2 |
| 20260502015827 | 49 | 263 | 0.0 | 0.0 | 0.00 | 0.00 | 0.00 | 43 | 1016.1 |
| 20260502015315 | 49 | 263 | 0.0 | 0.0 | 0.00 | 0.00 | 0.00 | 42 | 1016.1 |
| 20260502014829 | 49 | 263 | 0.0 | 0.0 | 0.00 | 0.00 | 0.00 | 43 | 1016.0 |
| 20260502014333 | 49 | 274 | 0.0 | 0.0 | 0.00 | 0.00 | 0.00 | 45 | 1015.9 |
| 20260502013820 | 49 | 360 | 0.0 | 0.0 | 0.00 | 0.00 | 0.00 | 46 | 1015.9 |
| 20260502013318 | 50 | 360 | 0.0 | 0.0 | 0.00 | 0.00 | 0.00 | 45 | 1015.9 |
| 20260502012821 | 50 | 360 | 0.0 | 0.0 | 0.00 | 0.00 | 0.00 | 44 | 1015.8 |
| 20260502012333 | 50 | 360 | 0.0 | 0.0 | 0.00 | 0.00 | 0.00 | 42 | 1015.8 |
| 20260502011820 | 50 | 360 | 0.0 | 0.0 | 0.00 | 0.00 | 0.00 | 38 | 1015.8 |
| 20260502011317 | 51 | 360 | 0.0 | 0.0 | 0.00 | 0.00 | 0.00 | 37 | 1015.8 |
| 20260502010831 | 51 | 360 | 0.0 | 0.0 | 0.00 | 0.00 | 0.00 | 36 | 1015.8 |
| 20260502010318 | 51 | 360 | 0.0 | 0.0 | 0.00 | 0.00 | 0.00 | 36 | 1015.8 |
| 20260502005817 | 51 | 360 | 0.0 | 0.0 | 0.00 | 0.00 | 0.00 | 36 | 1015.8 |
| 20260502005315 | 51 | 360 | 0.0 | 0.0 | 0.00 | 0.00 | 0.00 | 35 | 1015.8 |
| 20260502004832 | 52 | 360 | 0.0 | 0.0 | 0.00 | 0.00 | 0.00 | 35 | 1015.7 |
| 20260502004334 | 52 | 360 | 0.0 | 0.0 | 0.00 | 0.00 | 0.00 | 35 | 1015.7 |
| 20260502003821 | 52 | 360 | 0.0 | 0.0 | 0.00 | 0.00 | 0.00 | 34 | 1015.7 |
| 20260502003337 | 52 | 360 | 0.0 | 0.0 | 0.00 | 0.00 | 0.00 | 34 | 1015.7 |
| 20260502002840 | 52 | 360 | 0.0 | 0.0 | 0.00 | 0.00 | 0.00 | 34 | 1015.8 |
| 20260502002327 | 52 | 360 | 0.0 | 0.0 | 0.00 | 0.00 | 0.00 | 35 | 1015.7 |
| 20260502001844 | 52 | 360 | 0.0 | 0.0 | 0.00 | 0.00 | 0.00 | 35 | 1015.8 |
| 20260502001346 | 52 | 360 | 0.0 | 0.0 | 0.00 | 0.00 | 0.00 | 35 | 1015.8 |
| 20260502000822 | 52 | 355 | 0.0 | 0.0 | 0.00 | 0.00 | 0.00 | 34 | 1015.8 |
| 20260502000339 | 52 | 360 | 0.0 | 0.0 | 0.00 | 0.00 | 0.00 | 34 | 1015.8 |
| 20260501235837 | 52 | 311 | 0.0 | 0.0 | 0.00 | 0.00 | 0.00 | 34 | 1015.8 |
| 20260501235333 | 52 | 334 | 0.0 | 0.0 | 0.00 | 0.00 | 0.00 | 34 | 1015.8 |
| 20260501234821 | 52 | 348 | 0.0 | 0.0 | 0.00 | 0.00 | 0.00 | 34 | 1015.8 |
| 20260501234323 | 52 | 330 | 0.0 | 0.0 | 0.00 | 0.00 | 0.00 | 34 | 1015.8 |
| 20260501233840 | 52 | 336 | 0.0 | 0.0 | 0.00 | 0.00 | 0.00 | 34 | 1015.8 |
| 20260501233327 | 52 | 317 | 0.0 | 0.0 | 0.00 | 0.00 | 0.00 | 34 | 1015.8 |
| 20260501232823 | 53 | 11 | 0.0 | 0.0 | 0.00 | 0.00 | 0.00 | 34 | 1015.9 |
| 20260501232320 | 53 | 360 | 0.0 | 0.0 | 0.00 | 0.00 | 0.00 | 34 | 1015.8 |
| 20260501231826 | 52 | 26 | 0.0 | 0.0 | 0.00 | 0.00 | 0.00 | 33 | 1015.8 |
| 20260501231330 | 52 | 13 | 0.0 | 0.0 | 0.00 | 0.00 | 0.00 | 33 | 1015.8 |
| 20260501230818 | 52 | 30 | 0.0 | 0.0 | 0.00 | 0.00 | 0.00 | 33 | 1015.8 |
| 20260501230334 | 53 | 10 | 0.0 | 0.0 | 0.00 | 0.00 | 0.00 | 32 | 1015.9 |
| 20260501225836 | 53 | 30 | 0.0 | 4.0 | 0.00 | 0.00 | 0.00 | 31 | 1015.9 |
| 20260501225324 | 53 | 26 | 0.0 | 6.0 | 0.00 | 0.00 | 0.00 | 31 | 1015.8 |
| 20260501224820 | 54 | 24 | 0.0 | 4.0 | 0.00 | 0.00 | 0.00 | 32 | 1015.8 |
| 20260501224323 | 54 | 250 | 0.0 | 1.0 | 0.00 | 0.00 | 0.00 | 32 | 1015.8 |
| 20260501223859 | 53 | 300 | 0.0 | 4.0 | 0.00 | 0.00 | 0.00 | 33 | 1015.8 |
| 20260501223326 | 54 | 32 | 0.0 | 4.0 | 0.00 | 0.00 | 0.00 | 32 | 1015.8 |
| 20260501222821 | 53 | 15 | 0.0 | 0.0 | 0.00 | 0.00 | 0.00 | 33 | 1015.8 |
| 20260501222333 | 53 | 344 | 0.0 | 0.0 | 0.00 | 0.00 | 0.00 | 34 | 1015.9 |
| 20260501221829 | 53 | 360 | 0.0 | 0.0 | 0.00 | 0.00 | 0.00 | 33 | 1015.9 |
| 20260501221333 | 53 | 26 | 0.0 | 0.0 | 0.00 | 0.00 | 0.00 | 34 | 1015.9 |
| 20260501220821 | 53 | 69 | 0.0 | 0.0 | 0.00 | 0.00 | 0.00 | 34 | 1015.9 |
| 20260501220337 | 53 | 15 | 0.0 | 4.0 | 0.00 | 0.00 | 0.00 | 32 | 1015.9 |
| 20260501215819 | 53 | 21 | 0.0 | 3.0 | 0.00 | 0.00 | 0.00 | 33 | 1015.9 |
| 20260501215355 | 53 | 350 | 0.0 | 0.0 | 0.00 | 0.00 | 0.00 | 33 | 1015.9 |
| 20260501214823 | 54 | 231 | 0.0 | 0.0 | 0.00 | 0.00 | 0.00 | 34 | 1015.9 |
| 20260501214326 | 54 | 11 | 0.0 | 1.0 | 0.00 | 0.00 | 0.00 | 34 | 1015.9 |
| 20260501213814 | 54 | 248 | 0.0 | 2.0 | 0.00 | 0.00 | 0.00 | 33 | 1016.0 |
| 20260501213329 | 54 | 284 | 0.0 | 2.0 | 0.00 | 0.00 | 0.00 | 34 | 1015.9 |
| 20260501212831 | 54 | 270 | 0.0 | 0.0 | 0.00 | 0.00 | 0.00 | 34 | 1016.0 |
| 20260501212327 | 53 | 344 | 0.0 | 0.0 | 0.00 | 0.00 | 0.00 | 34 | 1016.0 |
| 20260501211831 | 53 | 329 | 0.0 | 1.0 | 0.00 | 0.00 | 0.00 | 35 | 1016.1 |
| 20260501211314 | 53 | 11 | 0.0 | 4.0 | 0.00 | 0.00 | 0.00 | 34 | 1016.1 |
| 20260501210851 | 53 | 360 | 0.0 | 4.0 | 0.00 | 0.00 | 0.00 | 34 | 1016.1 |
| 20260501210346 | 53 | 5 | 0.0 | 0.0 | 0.00 | 0.00 | 0.00 | 33 | 1016.1 |
| 20260501205818 | 53 | 313 | 0.0 | 0.0 | 0.00 | 0.00 | 0.00 | 35 | 1016.1 |
| 20260501205352 | 53 | 292 | 0.0 | 1.0 | 0.00 | 0.00 | 0.00 | 37 | 1016.2 |
| 20260501204848 | 52 | 275 | 0.0 | 1.0 | 0.00 | 0.00 | 0.00 | 34 | 1016.2 |
| 20260501204323 | 53 | 292 | 0.0 | 0.0 | 0.00 | 0.00 | 0.00 | 34 | 1016.3 |
| 20260501203820 | 53 | 53 | 0.0 | 0.0 | 0.00 | 0.00 | 0.00 | 34 | 1016.2 |
| 20260501203327 | 53 | 28 | 0.0 | 1.0 | 0.00 | 0.00 | 0.00 | 32 | 1016.3 |
| 20260501202828 | 52 | 309 | 0.0 | 1.0 | 0.00 | 0.00 | 0.00 | 36 | 1016.4 |
| 20260501202324 | 52 | 314 | 0.0 | 1.0 | 0.00 | 0.00 | 0.00 | 36 | 1016.4 |
| 20260501201832 | 52 | 39 | 0.0 | 4.0 | 0.00 | 0.00 | 0.00 | 36 | 1016.4 |
| 20260501201344 | 52 | 346 | 0.0 | 4.0 | 0.00 | 0.00 | 0.00 | 35 | 1016.5 |
| 20260501200831 | 53 | 10 | 0.0 | 4.0 | 0.00 | 0.00 | 0.00 | 34 | 1016.4 |
| 20260501200328 | 52 | 26 | 0.0 | 2.0 | 0.00 | 0.00 | 0.00 | 35 | 1016.5 |
| 20260501195851 | 52 | 350 | 0.0 | 2.0 | 0.00 | 0.00 | 0.00 | 36 | 1016.5 |
| 20260501195328 | 51 | 319 | 0.0 | 4.0 | 0.00 | 0.00 | 0.00 | 35 | 1016.6 |